createdAt,value
2017-04-21T00:15:01.839Z,86.53
2017-04-21T00:35:02.273Z,63.93
2017-04-21T00:55:02.820Z,64.79
2017-04-21T01:15:03.273Z,68.80
2017-04-21T01:35:03.772Z,82.38
2017-04-21T01:55:04.318Z,63.06
2017-04-21T02:15:04.724Z,75.66
2017-04-21T02:35:05.144Z,81.28
2017-04-21T02:55:05.588Z,84.64
2017-04-21T03:15:06.124Z,94.19
2017-04-21T03:55:07.125Z,87.27
2017-04-21T04:14:23.176Z,74.47
2017-04-21T04:34:23.513Z,84.05
2017-04-21T04:54:23.985Z,99.66
2017-04-21T05:14:24.467Z,100.00
2017-04-21T05:54:25.424Z,99.97
2017-04-21T06:14:25.910Z,100.00
2017-04-21T06:34:26.486Z,100.00
2017-04-21T06:54:26.934Z,100.00
2017-04-21T07:14:27.427Z,100.00
2017-04-21T07:34:27.911Z,100.00
2017-04-21T07:54:28.368Z,100.00
2017-04-21T08:19:29.156Z,88.33
2017-04-21T08:39:29.656Z,61.12
2017-04-21T08:59:30.231Z,25.09
2017-04-21T09:44:31.441Z,57.24
2017-04-21T10:24:32.385Z,100.00
2017-04-21T10:44:32.930Z,100.00
2017-04-21T11:04:33.412Z,100.00
2017-04-21T11:29:34.073Z,100.00
2017-04-21T11:49:34.627Z,100.00
2017-04-21T12:09:35.118Z,100.00
2017-04-21T12:29:35.472Z,100.00
2017-04-21T12:49:35.989Z,100.00
2017-04-21T13:09:36.537Z,100.00
2017-04-21T13:29:37.163Z,100.00
2017-04-21T13:49:37.702Z,100.00
2017-04-21T14:09:38.201Z,100.00
2017-04-21T14:29:38.769Z,100.00
2017-04-21T14:49:39.333Z,100.00
2017-04-21T15:09:39.837Z,100.00
2017-04-21T15:29:40.496Z,100.00
2017-04-21T15:49:41.025Z,100.00
2017-04-21T16:09:41.513Z,100.00
2017-04-21T16:29:42.152Z,100.00
2017-04-21T16:49:42.641Z,100.00
2017-04-21T17:09:43.071Z,100.00
2017-04-21T17:29:43.569Z,95.20
2017-04-21T17:49:44.160Z,92.46
2017-04-21T18:09:44.705Z,97.29
2017-04-21T18:29:45.260Z,74.39
2017-04-21T18:59:47.105Z,43.67
2017-04-21T19:20:31.039Z,75.25
2017-04-21T19:40:31.579Z,96.53
2017-04-21T20:00:32.124Z,93.53
2017-04-21T20:20:32.643Z,97.51
2017-04-21T20:40:33.139Z,98.65
2017-04-21T21:00:33.708Z,98.63
2017-04-21T21:20:34.159Z,99.52
2017-04-21T21:40:34.665Z,99.80
2017-04-21T22:00:35.151Z,99.98
2017-04-21T22:20:35.620Z,99.99
2017-04-21T22:40:36.136Z,100.00
2017-04-21T23:00:36.620Z,99.99
2017-04-21T23:20:37.154Z,100.00
2017-04-21T23:40:37.689Z,99.99
